Аэропорт: Абакан. Абакан

ICAO: UNAA

METAR:
2019-11-21 09:00:00
UNAA 210900Z 19003MPS CAVOK M18/M24 Q1028 R20/820149 NOSIG RMK QFE748
METAR:
2019-11-21 07:53:00
TAF UNAA 210753Z 2109/2209 19003G10MPS CAVOK FM212100 21005G12MPS 9000 -SN SCT017 TEMPO 2121/2206 4000 -SN